createdAt,value
2022-08-29T00:03:02.019Z,18.20
2022-08-29T00:06:26.521Z,18.13
2022-08-29T00:09:40.602Z,18.11
2022-08-29T00:13:04.684Z,18.10
2022-08-29T00:16:18.671Z,18.00
2022-08-29T00:19:38.350Z,18.03
2022-08-29T00:22:58.393Z,18.01
2022-08-29T00:26:05.627Z,18.00
2022-08-29T00:29:12.625Z,17.97
2022-08-29T00:32:19.095Z,17.97
2022-08-29T00:35:30.378Z,17.96
2022-08-29T00:38:42.683Z,17.90
2022-08-29T00:41:53.209Z,17.88
2022-08-29T00:45:00.905Z,17.88
2022-08-29T00:48:11.938Z,17.87
2022-08-29T00:51:25.118Z,17.85
2022-08-29T00:54:35.024Z,17.83
2022-08-29T00:57:46.970Z,17.78
2022-08-29T01:00:55.383Z,17.73
2022-08-29T01:04:01.272Z,17.70
2022-08-29T01:07:07.636Z,17.69
2022-08-29T01:10:36.576Z,17.67
2022-08-29T01:13:45.852Z,17.64
2022-08-29T01:16:54.781Z,17.60
2022-08-29T01:20:09.104Z,17.60
2022-08-29T01:23:18.537Z,17.60
2022-08-29T01:26:33.029Z,17.58
2022-08-29T01:29:59.354Z,17.50
2022-08-29T01:33:14.769Z,17.41
2022-08-29T01:40:21.420Z,17.41
2022-08-29T01:43:36.628Z,17.34
2022-08-29T01:47:06.039Z,17.36
2022-08-29T01:50:31.644Z,17.32
2022-08-29T01:53:45.382Z,17.31
2022-08-29T01:57:01.096Z,17.31
2022-08-29T02:00:24.155Z,17.30
2022-08-29T02:03:44.629Z,17.31
2022-08-29T02:06:57.147Z,17.27
2022-08-29T02:10:02.824Z,17.22
2022-08-29T02:13:17.083Z,17.20
2022-08-29T02:16:41.244Z,17.22
2022-08-29T02:19:56.029Z,17.19
2022-08-29T02:23:30.278Z,17.14
2022-08-29T02:26:43.738Z,17.10
2022-08-29T02:29:53.643Z,17.03
2022-08-29T02:33:07.060Z,16.96
2022-08-29T02:36:21.634Z,16.96
2022-08-29T02:39:39.270Z,16.97
2022-08-29T02:42:44.365Z,16.99
2022-08-29T02:45:49.904Z,16.98
2022-08-29T02:49:28.956Z,16.98
2022-08-29T02:52:39.670Z,16.96
2022-08-29T02:55:47.193Z,16.92
2022-08-29T02:58:55.132Z,16.93
2022-08-29T03:02:00.495Z,16.91
2022-08-29T03:05:15.343Z,16.90
2022-08-29T03:08:32.630Z,16.85
2022-08-29T03:11:43.616Z,16.80
2022-08-29T03:14:50.703Z,16.75
2022-08-29T03:17:55.785Z,16.73
2022-08-29T03:21:00.525Z,16.73
2022-08-29T03:24:03.654Z,16.68
2022-08-29T03:27:06.553Z,16.65
2022-08-29T03:30:12.458Z,16.63
2022-08-29T03:33:15.209Z,16.64
2022-08-29T03:36:19.971Z,16.59
2022-08-29T03:39:22.693Z,16.55
2022-08-29T03:42:26.006Z,16.58
2022-08-29T03:45:29.577Z,16.56
2022-08-29T03:48:33.253Z,16.53
2022-08-29T03:51:39.870Z,16.50
2022-08-29T03:54:42.731Z,16.50
2022-08-29T03:57:45.585Z,16.46
2022-08-29T04:00:48.288Z,16.42
2022-08-29T04:03:51.335Z,16.38
2022-08-29T04:06:57.109Z,16.35
2022-08-29T04:10:01.651Z,16.38
2022-08-29T04:13:10.123Z,16.39
2022-08-29T04:16:18.108Z,16.39
2022-08-29T04:19:22.703Z,16.38
2022-08-29T04:22:26.852Z,16.37
2022-08-29T04:25:37.309Z,16.34
2022-08-29T04:28:40.532Z,16.30
2022-08-29T04:31:50.589Z,16.31
2022-08-29T04:34:57.281Z,16.29
2022-08-29T04:38:18.092Z,16.32
2022-08-29T04:41:22.875Z,16.27
2022-08-29T04:44:25.595Z,16.22
2022-08-29T04:47:28.308Z,16.15
2022-08-29T04:50:31.582Z,16.14
2022-08-29T04:53:36.431Z,16.16
2022-08-29T04:56:44.346Z,16.12
2022-08-29T04:59:55.197Z,16.08
2022-08-29T05:02:58.083Z,16.14
2022-08-29T05:06:03.176Z,16.12
2022-08-29T05:09:07.260Z,16.12
2022-08-29T05:12:10.444Z,16.19
2022-08-29T05:15:14.354Z,16.23
2022-08-29T05:18:18.493Z,16.26
2022-08-29T05:21:27.038Z,16.30
2022-08-29T05:24:31.701Z,16.33
2022-08-29T05:27:34.921Z,16.36
2022-08-29T05:30:38.706Z,16.39
2022-08-29T05:33:41.718Z,16.48
2022-08-29T05:36:45.190Z,16.59
2022-08-29T05:39:52.401Z,16.67
2022-08-29T05:42:55.169Z,16.74
2022-08-29T05:46:03.664Z,16.80
2022-08-29T05:49:06.578Z,16.88
2022-08-29T05:52:10.627Z,16.97
2022-08-29T05:55:14.848Z,17.01
2022-08-29T05:58:18.311Z,17.10
2022-08-29T06:01:26.033Z,17.23
2022-08-29T06:04:29.229Z,17.32
2022-08-29T06:07:33.129Z,17.44
2022-08-29T06:10:41.552Z,17.57
2022-08-29T06:13:44.542Z,17.71
2022-08-29T06:16:47.322Z,17.89
2022-08-29T06:19:52.403Z,18.03
2022-08-29T06:22:55.337Z,18.18
2022-08-29T06:26:00.176Z,18.34
2022-08-29T06:29:06.471Z,18.46
2022-08-29T06:32:09.300Z,18.61
2022-08-29T06:35:12.193Z,18.80
2022-08-29T06:38:15.448Z,19.06
2022-08-29T06:41:20.859Z,19.66
2022-08-29T06:44:23.870Z,20.68
2022-08-29T06:47:26.657Z,21.84
2022-08-29T06:50:29.397Z,23.11
2022-08-29T06:53:32.848Z,24.61
2022-08-29T06:56:38.274Z,25.76
2022-08-29T06:59:41.209Z,26.54
2022-08-29T07:02:44.028Z,26.69
2022-08-29T07:05:55.072Z,26.18
2022-08-29T07:08:58.812Z,25.32
2022-08-29T07:12:03.588Z,24.48
2022-08-29T07:15:07.369Z,23.76
2022-08-29T07:18:10.109Z,23.29
2022-08-29T07:21:20.122Z,23.04
2022-08-29T07:24:25.008Z,22.92
2022-08-29T07:27:29.267Z,22.71
2022-08-29T07:30:32.948Z,22.72
2022-08-29T07:33:35.960Z,22.61
2022-08-29T07:36:39.745Z,22.62
2022-08-29T07:39:42.465Z,22.65
2022-08-29T07:42:46.614Z,22.72
2022-08-29T07:45:49.388Z,22.83
2022-08-29T07:48:53.551Z,22.86
2022-08-29T07:51:56.726Z,22.98
2022-08-29T07:54:59.545Z,22.98
2022-08-29T07:58:04.779Z,23.09
2022-08-29T08:01:08.189Z,23.21
2022-08-29T08:04:15.386Z,23.13
2022-08-29T08:07:18.767Z,23.28
2022-08-29T08:10:22.113Z,23.44
2022-08-29T08:13:27.925Z,23.65
2022-08-29T08:16:31.812Z,23.83
2022-08-29T08:19:34.555Z,24.07
2022-08-29T08:22:38.286Z,24.24
2022-08-29T08:25:41.030Z,24.38
2022-08-29T08:28:45.738Z,24.53
2022-08-29T08:31:51.650Z,24.65
2022-08-29T08:34:54.431Z,24.77
2022-08-29T08:37:57.559Z,24.87
2022-08-29T08:41:07.170Z,24.96
2022-08-29T08:44:29.691Z,25.05
2022-08-29T08:47:40.479Z,25.23
2022-08-29T08:50:52.417Z,25.33
2022-08-29T08:54:00.358Z,25.45
2022-08-29T08:57:08.004Z,25.53
2022-08-29T09:00:13.395Z,25.53
2022-08-29T09:03:46.698Z,25.53
2022-08-29T09:07:04.477Z,25.46
2022-08-29T09:10:23.702Z,25.66
2022-08-29T09:13:38.492Z,25.83
2022-08-29T09:16:47.637Z,25.92
2022-08-29T09:19:51.849Z,26.09
2022-08-29T09:23:00.688Z,26.16
2022-08-29T09:26:03.497Z,26.15
2022-08-29T09:29:09.839Z,26.14
2022-08-29T09:32:20.156Z,26.10
2022-08-29T09:35:29.391Z,26.24
2022-08-29T09:38:32.130Z,26.30
2022-08-29T09:41:34.978Z,26.22
2022-08-29T09:44:38.520Z,26.31
2022-08-29T09:47:42.659Z,26.52
2022-08-29T09:50:45.669Z,26.64
2022-08-29T09:53:49.159Z,26.79
2022-08-29T09:56:59.865Z,26.83
2022-08-29T10:00:13.467Z,26.92
2022-08-29T10:03:24.604Z,27.05
2022-08-29T10:06:29.908Z,27.15
2022-08-29T10:09:32.712Z,27.10
2022-08-29T10:12:46.897Z,27.11
2022-08-29T10:15:55.423Z,27.06
2022-08-29T10:19:02.833Z,27.05
2022-08-29T10:22:18.721Z,27.17
2022-08-29T10:25:29.823Z,27.33
2022-08-29T10:28:39.436Z,27.42
2022-08-29T10:31:47.906Z,27.55
2022-08-29T10:35:05.708Z,27.63
2022-08-29T10:38:16.395Z,27.64
2022-08-29T10:41:32.098Z,27.66
2022-08-29T10:44:41.273Z,27.58
2022-08-29T10:47:53.270Z,27.61
2022-08-29T10:51:11.761Z,27.66
2022-08-29T10:54:33.353Z,27.54
2022-08-29T10:57:47.194Z,27.40
2022-08-29T11:00:56.435Z,27.44
2022-08-29T11:04:09.709Z,27.44
2022-08-29T11:07:18.800Z,27.42
2022-08-29T11:10:26.990Z,27.49
2022-08-29T11:13:36.055Z,27.62
2022-08-29T11:16:45.267Z,27.72
2022-08-29T11:19:58.929Z,27.80
2022-08-29T11:23:09.638Z,27.71
2022-08-29T11:26:20.052Z,27.73
2022-08-29T11:29:33.260Z,27.71
2022-08-29T11:32:45.359Z,27.79
2022-08-29T11:36:05.021Z,27.87
2022-08-29T11:39:46.910Z,28.11
2022-08-29T11:42:52.438Z,28.29
2022-08-29T11:45:59.413Z,28.28
2022-08-29T11:49:27.173Z,28.50
2022-08-29T11:52:31.392Z,28.42
2022-08-29T11:55:37.914Z,28.53
2022-08-29T11:58:46.383Z,28.59
2022-08-29T12:02:01.813Z,28.63
2022-08-29T12:05:06.672Z,28.81
2022-08-29T12:08:36.028Z,28.98
2022-08-29T12:12:28.434Z,29.21
2022-08-29T12:15:54.708Z,28.93
2022-08-29T12:18:59.918Z,28.58
2022-08-29T12:22:02.756Z,28.75
2022-08-29T12:25:30.846Z,28.95
2022-08-29T12:28:44.444Z,29.24
2022-08-29T12:32:23.069Z,29.40
2022-08-29T12:35:46.500Z,29.56
2022-08-29T12:39:05.479Z,29.78
2022-08-29T12:42:22.035Z,29.74
2022-08-29T12:45:27.782Z,29.77
2022-08-29T12:48:37.880Z,29.65
2022-08-29T12:51:52.430Z,29.41
2022-08-29T12:54:56.841Z,29.07
2022-08-29T12:58:00.003Z,29.00
2022-08-29T13:01:03.971Z,29.10
2022-08-29T13:04:14.739Z,29.27
2022-08-29T13:07:19.826Z,29.58
2022-08-29T13:10:23.285Z,29.55
2022-08-29T13:13:26.815Z,29.73
2022-08-29T13:16:32.000Z,29.72
2022-08-29T13:19:35.038Z,29.83
2022-08-29T13:22:39.136Z,29.93
2022-08-29T13:25:51.305Z,29.84
2022-08-29T13:28:56.196Z,29.88
2022-08-29T13:32:27.445Z,29.99
2022-08-29T13:35:32.825Z,30.15
2022-08-29T13:38:36.934Z,29.91
2022-08-29T13:41:39.691Z,29.47
2022-08-29T13:44:59.112Z,29.12
2022-08-29T13:48:20.246Z,28.96
2022-08-29T13:51:22.934Z,28.83
2022-08-29T13:54:30.800Z,28.88
2022-08-29T13:57:34.710Z,28.61
2022-08-29T14:00:37.924Z,28.81
2022-08-29T14:03:41.145Z,29.11
2022-08-29T14:06:44.028Z,29.45
2022-08-29T14:09:48.618Z,29.57
2022-08-29T14:12:51.480Z,29.68
2022-08-29T14:15:54.454Z,29.45
2022-08-29T14:18:57.253Z,29.50
2022-08-29T14:22:00.503Z,29.26
2022-08-29T14:25:05.712Z,29.18
2022-08-29T14:28:09.409Z,29.39
2022-08-29T14:31:16.077Z,29.59
2022-08-29T14:34:19.125Z,29.60
2022-08-29T14:37:21.878Z,29.70
2022-08-29T14:40:29.111Z,29.57
2022-08-29T14:43:34.282Z,29.64
2022-08-29T14:46:40.487Z,29.78
2022-08-29T14:49:43.366Z,29.86
2022-08-29T14:52:46.229Z,29.88
2022-08-29T14:55:50.344Z,29.71
2022-08-29T14:58:53.094Z,29.64
2022-08-29T15:01:56.018Z,29.71
2022-08-29T15:04:59.268Z,29.85
2022-08-29T15:08:06.355Z,29.92
2022-08-29T15:11:11.765Z,29.77
2022-08-29T15:14:14.805Z,29.45
2022-08-29T15:17:17.686Z,29.47
2022-08-29T15:20:40.145Z,29.42
2022-08-29T15:23:47.552Z,29.45
2022-08-29T15:26:54.033Z,29.34
2022-08-29T15:29:59.801Z,29.21
2022-08-29T15:33:05.435Z,29.19
2022-08-29T15:36:10.571Z,29.13
2022-08-29T15:39:15.647Z,29.09
2022-08-29T15:42:24.588Z,29.13
2022-08-29T15:45:31.911Z,29.07
2022-08-29T15:48:36.967Z,28.94
2022-08-29T15:51:41.737Z,28.87
2022-08-29T15:54:47.322Z,28.82
2022-08-29T15:57:54.397Z,28.70
2022-08-29T16:00:59.749Z,28.38
2022-08-29T16:04:05.799Z,28.19
2022-08-29T16:07:13.195Z,28.15
2022-08-29T16:10:19.991Z,28.15
2022-08-29T16:13:26.508Z,28.23
2022-08-29T16:16:31.615Z,28.30
2022-08-29T16:19:38.223Z,28.36
2022-08-29T16:22:44.830Z,28.44
2022-08-29T16:25:50.316Z,28.52
2022-08-29T16:28:56.770Z,28.48
2022-08-29T16:32:01.986Z,28.42
2022-08-29T16:35:07.743Z,28.29
2022-08-29T16:38:13.145Z,28.15
2022-08-29T16:41:21.962Z,27.99
2022-08-29T16:44:28.381Z,27.93
2022-08-29T16:47:33.400Z,27.70
2022-08-29T16:50:40.488Z,27.55
2022-08-29T16:53:46.258Z,27.41
2022-08-29T16:56:51.370Z,27.31
2022-08-29T16:59:57.768Z,27.20
2022-08-29T17:03:02.683Z,27.07
2022-08-29T17:06:08.038Z,26.98
2022-08-29T17:09:11.208Z,26.85
2022-08-29T17:12:14.834Z,26.78
2022-08-29T17:15:21.023Z,26.69
2022-08-29T17:18:26.010Z,26.58
2022-08-29T17:21:32.373Z,26.47
2022-08-29T17:24:38.935Z,26.36
2022-08-29T17:28:00.823Z,26.20
2022-08-29T17:31:11.409Z,26.03
2022-08-29T17:34:16.772Z,25.86
2022-08-29T17:37:21.871Z,25.73
2022-08-29T17:40:27.653Z,25.65
2022-08-29T17:43:33.470Z,25.59
2022-08-29T17:46:39.919Z,25.43
2022-08-29T17:49:45.165Z,25.32
2022-08-29T17:52:50.364Z,25.19
2022-08-29T17:55:55.594Z,25.05
2022-08-29T17:59:05.908Z,24.96
2022-08-29T18:02:13.734Z,24.88
2022-08-29T18:05:18.742Z,24.76
2022-08-29T18:08:23.616Z,24.68
2022-08-29T18:11:28.940Z,24.54
2022-08-29T18:14:34.343Z,24.37
2022-08-29T18:17:41.614Z,24.25
2022-08-29T18:20:46.495Z,24.12
2022-08-29T18:23:53.640Z,23.97
2022-08-29T18:26:58.799Z,23.85
2022-08-29T18:30:04.529Z,23.70
2022-08-29T18:33:13.166Z,23.60
2022-08-29T18:36:18.598Z,23.49
2022-08-29T18:39:25.382Z,23.45
2022-08-29T18:42:40.411Z,23.40
2022-08-29T18:45:47.998Z,23.32
2022-08-29T18:48:55.119Z,23.34
2022-08-29T18:51:59.875Z,23.34
2022-08-29T18:55:05.183Z,23.28
2022-08-29T18:58:10.643Z,23.18
2022-08-29T19:01:26.918Z,23.11
2022-08-29T19:04:34.852Z,22.98
2022-08-29T19:07:40.354Z,22.93
2022-08-29T19:10:47.118Z,22.89
2022-08-29T19:13:52.990Z,22.88
2022-08-29T19:17:03.277Z,22.77
2022-08-29T19:20:29.492Z,22.69
2022-08-29T19:23:36.729Z,22.62
2022-08-29T19:26:41.814Z,22.60
2022-08-29T19:29:48.618Z,22.51
2022-08-29T19:32:54.565Z,22.42
2022-08-29T19:36:01.168Z,22.29
2022-08-29T19:39:06.314Z,22.21
2022-08-29T19:42:16.805Z,22.16
2022-08-29T19:45:22.423Z,22.12
2022-08-29T19:48:27.784Z,22.09
2022-08-29T19:51:34.272Z,22.05
2022-08-29T19:54:41.116Z,21.96
2022-08-29T19:57:51.937Z,21.88
2022-08-29T20:00:56.991Z,21.81
2022-08-29T20:04:02.090Z,21.74
2022-08-29T20:07:08.536Z,21.70
2022-08-29T20:10:15.052Z,21.60
2022-08-29T20:13:20.754Z,21.56
2022-08-29T20:16:28.757Z,21.50
2022-08-29T20:19:33.726Z,21.48
2022-08-29T20:22:41.674Z,21.41
2022-08-29T20:25:48.021Z,21.37
2022-08-29T20:28:54.597Z,21.32
2022-08-29T20:32:00.786Z,21.31
2022-08-29T20:35:06.156Z,21.31
2022-08-29T20:38:11.784Z,21.27
2022-08-29T20:41:21.305Z,21.19
2022-08-29T20:44:30.217Z,21.16
2022-08-29T20:47:38.784Z,21.11
2022-08-29T20:50:43.509Z,21.10
2022-08-29T20:53:50.439Z,21.00
2022-08-29T20:56:56.991Z,20.98
2022-08-29T21:00:02.161Z,20.96
2022-08-29T21:03:23.513Z,20.98
2022-08-29T21:06:28.583Z,20.98
2022-08-29T21:09:35.845Z,21.05
2022-08-29T21:12:40.882Z,21.09
2022-08-29T21:15:46.586Z,21.11
2022-08-29T21:18:53.882Z,21.15
2022-08-29T21:21:59.944Z,21.16
2022-08-29T21:25:06.880Z,21.24
2022-08-29T21:28:13.972Z,21.28
2022-08-29T21:31:22.024Z,21.27
2022-08-29T21:34:27.779Z,21.27
2022-08-29T21:37:32.545Z,21.28
2022-08-29T21:40:44.055Z,21.22
2022-08-29T21:43:56.191Z,21.20
2022-08-29T21:47:01.596Z,21.16
2022-08-29T21:50:06.671Z,21.12
2022-08-29T21:53:15.046Z,21.04
2022-08-29T21:56:23.234Z,20.96
2022-08-29T21:59:28.385Z,20.88
2022-08-29T22:02:33.968Z,20.83
2022-08-29T22:05:43.054Z,20.76
2022-08-29T22:08:49.319Z,20.67
2022-08-29T22:11:56.348Z,20.60
2022-08-29T22:15:17.470Z,20.53
2022-08-29T22:18:22.892Z,20.43
2022-08-29T22:21:29.310Z,20.37
2022-08-29T22:24:34.655Z,20.35
2022-08-29T22:27:41.320Z,20.29
2022-08-29T22:30:46.299Z,20.23
2022-08-29T22:33:52.012Z,20.19
2022-08-29T22:36:57.159Z,20.16
2022-08-29T22:40:02.510Z,20.14
2022-08-29T22:43:08.698Z,20.13
2022-08-29T22:46:15.372Z,20.04
2022-08-29T22:49:19.977Z,20.06
2022-08-29T22:52:24.967Z,20.00
2022-08-29T22:55:32.670Z,19.94
2022-08-29T22:58:38.838Z,19.93
2022-08-29T23:01:45.866Z,19.88
2022-08-29T23:04:51.429Z,19.90
2022-08-29T23:07:57.538Z,19.89
2022-08-29T23:11:02.597Z,19.79
2022-08-29T23:14:12.592Z,19.79
2022-08-29T23:17:18.974Z,19.70
2022-08-29T23:20:23.873Z,19.67
2022-08-29T23:23:33.923Z,19.63
2022-08-29T23:26:39.229Z,19.57
2022-08-29T23:29:45.943Z,19.49
2022-08-29T23:32:51.163Z,19.49
2022-08-29T23:35:57.872Z,19.47
2022-08-29T23:39:02.954Z,19.41
2022-08-29T23:42:07.942Z,19.38
2022-08-29T23:45:14.921Z,19.36
2022-08-29T23:48:23.034Z,19.26
2022-08-29T23:51:31.455Z,19.25
2022-08-29T23:54:38.025Z,19.20
2022-08-29T23:57:43.543Z,19.22
